White Oaks, New Mexico
Current Conditions -  °F | °C
As of 9:55 PM on Saturday 20 Dec 2014 (Local Time) from KSRR Reporting Station
Clear Clear  
Wind Chill: 26°   Ceiling: Unl
Heat Index: 32°   Visibility: 10mi
Dew Point: 14°   Wind: 7mph
Humidity: 47%   Direction: 220°SW
Pressure: 30.09"   Gusts: NA
Location:  33.6269°N, 105.978°W
Report Text: KSRR 210455Z AUTO 22006KT 10SM CLR 00/M10 A3009 RMK AO2
Loading
Personal Weather Stations






























Interactive Weather Map New forecast layout! Learn more

10-Day Weather Forecast

Advertisements
Track Severe Weather on mobile